Time;durP1;ratioP1;P1;durP2;ratioP2;P2;SDS_P1;SDS_P2;PMS_P1;PMS_P2;Temp;Humidity;BMP_temperature;BMP_pressure;BME280_temperature;BME280_humidity;BME280_pressure;Samples;Min_cycle;Max_cycle;Signal;HPM_P1;HPM_P2
2023/06/20 00:00:11;;;;;;;7.03;4.97;;;;;;;;;;5058409;28;20323;-64
2023/06/20 00:02:36;;;;;;;8.02;5.05;;;;;;;;;;5026584;28;20292;-64
2023/06/20 00:05:03;;;;;;;7.97;4.68;;;;;;;;;;5066835;28;20036;-64
2023/06/20 00:07:29;;;;;;;7.50;4.80;;;;;;;;;;5045169;28;20033;-65
2023/06/20 00:09:54;;;;;;;5.10;4.50;;;;;;;;;;5041480;28;20179;-68
2023/06/20 00:12:19;;;;;;;7.47;4.80;;;;;;;;;;5035711;28;20478;-66
2023/06/20 00:14:44;;;;;;;7.32;4.82;;;;;;;;;;5035572;28;21045;-66
2023/06/20 00:17:10;;;;;;;7.07;4.80;;;;;;;;;;5052394;28;20064;-66
2023/06/20 00:19:35;;;;;;;10.33;5.07;;;;;;;;;;5056468;28;20678;-65
2023/06/20 00:22:03;;;;;;;6.97;4.97;;;;;;;;;;5047988;28;20290;-64
2023/06/20 00:24:31;;;;;;;8.55;5.20;;;;;;;;;;5050036;28;20391;-65
2023/06/20 00:26:56;;;;;;;7.72;4.82;;;;;;;;;;5049847;28;20611;-66
2023/06/20 00:29:21;;;;;;;6.40;5.35;;;;;;;;;;5058444;28;20107;-66
2023/06/20 00:31:47;;;;;;;7.00;4.93;;;;;;;;;;5040122;28;20090;-65
2023/06/20 00:34:12;;;;;;;6.55;4.97;;;;;;;;;;5040720;28;20274;-66
2023/06/20 00:36:38;;;;;;;7.97;5.00;;;;;;;;;;5062201;28;20443;-65
2023/06/20 00:39:03;;;;;;;6.30;5.18;;;;;;;;;;5065302;28;20329;-64
2023/06/20 00:41:31;;;;;;;8.10;5.40;;;;;;;;;;5061897;28;20033;-65
2023/06/20 00:43:56;;;;;;;9.65;5.85;;;;;;;;;;5057831;28;20069;-65
2023/06/20 00:46:25;;;;;;;7.53;5.03;;;;;;;;;;5062562;28;20510;-66
2023/06/20 00:48:51;;;;;;;7.88;5.28;;;;;;;;;;5052141;28;20731;-65
2023/06/20 00:51:16;;;;;;;8.02;5.10;;;;;;;;;;5055139;28;20028;-66
2023/06/20 00:53:42;;;;;;;7.10;5.50;;;;;;;;;;5058278;28;20108;-63
2023/06/20 00:56:08;;;;;;;7.88;5.47;;;;;;;;;;5063135;28;20066;-67
2023/06/20 00:58:33;;;;;;;8.70;5.35;;;;;;;;;;5063668;28;20035;-68
2023/06/20 01:00:59;;;;;;;9.13;5.45;;;;;;;;;;5047085;28;20017;-62
2023/06/20 01:03:24;;;;;;;7.77;6.00;;;;;;;;;;5065936;28;20155;-67
2023/06/20 01:05:53;;;;;;;8.97;5.70;;;;;;;;;;5029711;28;20682;-66
2023/06/20 01:08:21;;;;;;;10.52;5.72;;;;;;;;;;5051677;28;20263;-65
2023/06/20 01:10:53;;;;;;;7.70;5.85;;;;;;;;;;5048946;28;20087;-61
2023/06/20 01:13:37;;;;;;;8.23;5.63;;;;;;;;;;5062804;28;20509;-66
2023/06/20 01:16:10;;;;;;;7.72;5.65;;;;;;;;;;5062629;28;20044;-67
2023/06/20 01:18:55;;;;;;;7.50;5.45;;;;;;;;;;5043089;28;20056;-67
2023/06/20 01:21:22;;;;;;;9.32;5.93;;;;;;;;;;5060564;28;20021;-65
2023/06/20 01:23:50;;;;;;;9.77;5.63;;;;;;;;;;5072175;28;20060;-65
2023/06/20 01:26:45;;;;;;;7.95;5.43;;;;;;;;;;5062839;28;20028;-62
2023/06/20 01:29:27;;;;;;;6.88;5.28;;;;;;;;;;4991539;28;20046;-64
2023/06/20 01:31:53;;;;;;;7.47;5.30;;;;;;;;;;5044926;28;20040;-65
2023/06/20 01:34:19;;;;;;;9.60;5.70;;;;;;;;;;5034650;28;20055;-64
2023/06/20 01:36:47;;;;;;;8.73;5.55;;;;;;;;;;5049850;28;20105;-64
2023/06/20 01:39:16;;;;;;;8.70;5.72;;;;;;;;;;5067636;28;20029;-64
2023/06/20 01:41:41;;;;;;;9.73;5.50;;;;;;;;;;5032512;28;20524;-66
2023/06/20 01:44:07;;;;;;;9.27;5.60;;;;;;;;;;5038514;28;20171;-63
2023/06/20 01:46:32;;;;;;;7.13;5.75;;;;;;;;;;5057750;28;20510;-68
2023/06/20 01:48:58;;;;;;;7.03;5.57;;;;;;;;;;5026694;28;20037;-66
2023/06/20 01:51:23;;;;;;;6.50;5.03;;;;;;;;;;5032526;28;20279;-67
2023/06/20 01:53:48;;;;;;;8.03;5.63;;;;;;;;;;5063063;28;20529;-67
2023/06/20 01:56:13;;;;;;;8.90;5.37;;;;;;;;;;5037114;28;20672;-66
2023/06/20 01:58:41;;;;;;;8.93;5.93;;;;;;;;;;5064563;28;20567;-65
2023/06/20 02:01:07;;;;;;;7.72;5.63;;;;;;;;;;5031141;28;20454;-64
2023/06/20 02:03:32;;;;;;;6.77;5.77;;;;;;;;;;5041305;28;20036;-65
2023/06/20 02:05:57;;;;;;;9.03;5.03;;;;;;;;;;5061983;28;20789;-66
2023/06/20 02:08:23;;;;;;;7.50;5.60;;;;;;;;;;5049556;28;20043;-65
2023/06/20 02:10:48;;;;;;;8.02;5.72;;;;;;;;;;5065631;28;20340;-66
2023/06/20 02:13:13;;;;;;;7.50;5.60;;;;;;;;;;5056550;28;20048;-64
2023/06/20 02:15:38;;;;;;;7.85;6.15;;;;;;;;;;5064259;28;20051;-64
2023/06/20 02:18:04;;;;;;;9.57;6.10;;;;;;;;;;5058729;28;20041;-63
2023/06/20 02:20:29;;;;;;;7.00;6.07;;;;;;;;;;5067943;28;20131;-65
2023/06/20 02:22:55;;;;;;;8.07;5.53;;;;;;;;;;5044082;28;20282;-61
2023/06/20 02:25:22;;;;;;;7.20;6.13;;;;;;;;;;5043138;28;20037;-65
2023/06/20 02:27:48;;;;;;;7.47;5.90;;;;;;;;;;5044110;28;20057;-65
2023/06/20 02:30:13;;;;;;;9.43;6.28;;;;;;;;;;5035631;28;20033;-66
2023/06/20 02:32:39;;;;;;;8.43;6.22;;;;;;;;;;5047956;28;20032;-65
2023/06/20 02:35:04;;;;;;;7.43;5.88;;;;;;;;;;5046139;28;20058;-66
2023/06/20 02:37:32;;;;;;;9.60;5.68;;;;;;;;;;5056584;28;20063;-65
2023/06/20 02:39:57;;;;;;;7.57;5.90;;;;;;;;;;5030795;28;20041;-67
2023/06/20 02:42:22;;;;;;;10.80;5.97;;;;;;;;;;5047016;28;20033;-66
2023/06/20 02:44:48;;;;;;;8.50;6.00;;;;;;;;;;5040452;28;20036;-66
2023/06/20 02:47:33;;;;;;;8.30;6.70;;;;;;;;;;5053739;28;20123;-66
2023/06/20 02:50:07;;;;;;;8.15;5.75;;;;;;;;;;5051272;28;20287;-66
2023/06/20 02:52:48;;;;;;;8.93;6.22;;;;;;;;;;5052167;28;20112;-66
2023/06/20 02:55:27;;;;;;;6.80;5.32;;;;;;;;;;5065235;28;21032;-64
2023/06/20 02:57:53;;;;;;;7.75;6.40;;;;;;;;;;5053056;28;20032;-63
2023/06/20 03:00:18;;;;;;;7.95;5.57;;;;;;;;;;5013356;28;20028;-65
2023/06/20 03:02:46;;;;;;;7.45;5.50;;;;;;;;;;5059229;28;20036;-65
2023/06/20 03:05:13;;;;;;;8.70;5.85;;;;;;;;;;5037333;28;20049;-63
2023/06/20 03:07:39;;;;;;;8.55;6.30;;;;;;;;;;5049694;28;20035;-67
2023/06/20 03:10:06;;;;;;;9.13;6.07;;;;;;;;;;5033918;28;20518;-67
2023/06/20 03:12:31;;;;;;;7.00;5.60;;;;;;;;;;5047606;28;20058;-64
2023/06/20 03:14:56;;;;;;;8.00;6.18;;;;;;;;;;5066483;28;20048;-65
2023/06/20 03:17:21;;;;;;;7.07;5.50;;;;;;;;;;5064187;28;20029;-62
2023/06/20 03:19:46;;;;;;;8.63;5.90;;;;;;;;;;5067754;28;20082;-62
2023/06/20 03:22:12;;;;;;;12.17;6.37;;;;;;;;;;5056656;28;20071;-62
2023/06/20 03:24:37;;;;;;;7.60;5.40;;;;;;;;;;5068185;28;20032;-64
2023/06/20 03:27:02;;;;;;;7.37;5.67;;;;;;;;;;5039768;28;20124;-62
2023/06/20 03:29:27;;;;;;;9.32;5.22;;;;;;;;;;5060990;28;20268;-64
2023/06/20 03:31:53;;;;;;;8.57;5.63;;;;;;;;;;5031806;28;20029;-63
2023/06/20 03:34:18;;;;;;;9.50;6.27;;;;;;;;;;5063962;28;20274;-62
2023/06/20 03:36:43;;;;;;;8.80;6.03;;;;;;;;;;5072051;28;20032;-63
2023/06/20 03:39:09;;;;;;;8.20;5.82;;;;;;;;;;5049936;28;20045;-64
2023/06/20 03:41:34;;;;;;;6.97;5.87;;;;;;;;;;5046863;28;20099;-65
2023/06/20 03:43:59;;;;;;;9.53;6.30;;;;;;;;;;5057361;28;20898;-63
2023/06/20 03:46:24;;;;;;;8.00;5.57;;;;;;;;;;5056458;28;20287;-65
2023/06/20 03:48:50;;;;;;;9.50;5.97;;;;;;;;;;5060733;28;20059;-64
2023/06/20 03:51:15;;;;;;;8.53;6.03;;;;;;;;;;5063290;28;20286;-64
2023/06/20 03:53:40;;;;;;;7.68;6.18;;;;;;;;;;5046109;28;20079;-63
2023/06/20 03:56:05;;;;;;;9.90;6.57;;;;;;;;;;5058840;28;20188;-62
2023/06/20 03:58:31;;;;;;;8.73;6.20;;;;;;;;;;5049232;28;20299;-63
2023/06/20 04:00:56;;;;;;;8.03;6.30;;;;;;;;;;5072348;28;20506;-64
2023/06/20 04:03:21;;;;;;;7.20;6.05;;;;;;;;;;5065632;28;20352;-63
2023/06/20 04:05:47;;;;;;;7.35;5.53;;;;;;;;;;5058356;28;20028;-64
2023/06/20 04:08:12;;;;;;;9.27;5.97;;;;;;;;;;5048491;28;20039;-62
2023/06/20 04:10:37;;;;;;;9.10;6.13;;;;;;;;;;5058330;28;20298;-63
2023/06/20 04:13:03;;;;;;;8.57;6.00;;;;;;;;;;5054560;28;20271;-63
2023/06/20 04:15:28;;;;;;;7.83;6.17;;;;;;;;;;5065633;28;20401;-62
2023/06/20 04:17:53;;;;;;;8.00;6.03;;;;;;;;;;5061841;28;20282;-65
2023/06/20 04:20:18;;;;;;;7.13;6.43;;;;;;;;;;5064847;28;20036;-65
2023/06/20 04:22:46;;;;;;;8.60;5.95;;;;;;;;;;5054768;28;20309;-64
2023/06/20 04:25:12;;;;;;;9.25;6.10;;;;;;;;;;5047913;28;20128;-65
2023/06/20 04:27:38;;;;;;;9.63;6.70;;;;;;;;;;5064429;28;20085;-64
2023/06/20 04:30:05;;;;;;;8.68;6.05;;;;;;;;;;5045862;28;20532;-66
2023/06/20 04:32:30;;;;;;;9.15;6.32;;;;;;;;;;5017261;28;20123;-65
2023/06/20 04:34:55;;;;;;;9.17;5.93;;;;;;;;;;5053212;28;20135;-64
2023/06/20 04:37:20;;;;;;;8.07;5.37;;;;;;;;;;5051849;28;20302;-65
2023/06/20 04:39:46;;;;;;;10.85;6.03;;;;;;;;;;5040997;28;21732;-61
2023/06/20 04:42:11;;;;;;;11.27;6.60;;;;;;;;;;5037372;28;20121;-65
2023/06/20 04:44:36;;;;;;;10.75;6.22;;;;;;;;;;5052995;28;20041;-67
2023/06/20 04:47:02;;;;;;;9.50;6.03;;;;;;;;;;5053404;28;20037;-66
2023/06/20 04:49:27;;;;;;;9.77;6.10;;;;;;;;;;5034957;28;20135;-65
2023/06/20 04:51:52;;;;;;;8.97;6.27;;;;;;;;;;5053542;28;20090;-65
2023/06/20 04:54:19;;;;;;;8.35;6.63;;;;;;;;;;5056067;28;20085;-62
2023/06/20 04:56:44;;;;;;;9.95;6.70;;;;;;;;;;5037085;28;20036;-63
2023/06/20 04:59:10;;;;;;;11.35;6.65;;;;;;;;;;5052008;28;20127;-65
2023/06/20 05:01:37;;;;;;;11.32;6.38;;;;;;;;;;5039530;28;20036;-62
2023/06/20 05:04:05;;;;;;;10.90;7.10;;;;;;;;;;5050604;28;20036;-65
2023/06/20 05:06:30;;;;;;;9.65;6.70;;;;;;;;;;5052148;28;20063;-64
2023/06/20 05:08:56;;;;;;;11.37;6.77;;;;;;;;;;5052448;28;20498;-66
2023/06/20 05:11:21;;;;;;;11.57;6.83;;;;;;;;;;5051657;28;20360;-68
2023/06/20 05:13:46;;;;;;;13.47;6.60;;;;;;;;;;5052242;28;20094;-62
2023/06/20 05:16:11;;;;;;;10.17;6.97;;;;;;;;;;5051850;28;20311;-64
2023/06/20 05:18:37;;;;;;;11.63;7.00;;;;;;;;;;5053666;28;20294;-61
2023/06/20 05:21:02;;;;;;;10.98;7.13;;;;;;;;;;5033051;28;20306;-62
2023/06/20 05:23:27;;;;;;;10.63;6.87;;;;;;;;;;5033344;28;20079;-67
2023/06/20 05:25:53;;;;;;;10.73;7.17;;;;;;;;;;5051854;28;20291;-69
2023/06/20 05:28:18;;;;;;;9.85;6.65;;;;;;;;;;5051416;28;20624;-68
2023/06/20 05:30:43;;;;;;;9.00;6.63;;;;;;;;;;5031914;28;20037;-63
2023/06/20 05:33:08;;;;;;;11.35;6.68;;;;;;;;;;5031830;28;20036;-63
2023/06/20 05:35:34;;;;;;;9.90;7.00;;;;;;;;;;5031737;28;20553;-61
2023/06/20 05:38:00;;;;;;;12.65;7.13;;;;;;;;;;5052475;28;20024;-60
2023/06/20 05:40:25;;;;;;;10.68;6.68;;;;;;;;;;5055273;28;20263;-63
2023/06/20 05:42:50;;;;;;;9.57;6.53;;;;;;;;;;5047277;28;20044;-61
2023/06/20 05:45:15;;;;;;;9.60;6.70;;;;;;;;;;5036681;28;20057;-61
2023/06/20 05:47:41;;;;;;;10.13;6.20;;;;;;;;;;5049795;28;20478;-63
2023/06/20 05:50:06;;;;;;;8.05;6.22;;;;;;;;;;5050784;28;20127;-63
2023/06/20 05:52:31;;;;;;;8.55;5.80;;;;;;;;;;5047818;28;20043;-64
2023/06/20 05:54:57;;;;;;;9.03;6.17;;;;;;;;;;5051618;28;20052;-62
2023/06/20 05:57:22;;;;;;;10.23;6.78;;;;;;;;;;5050694;28;20295;-62
2023/06/20 05:59:47;;;;;;;9.93;6.63;;;;;;;;;;5051191;28;20503;-60
2023/06/20 06:02:13;;;;;;;10.03;6.77;;;;;;;;;;5050565;28;20029;-64
2023/06/20 06:04:38;;;;;;;11.10;7.20;;;;;;;;;;5049480;28;20124;-63
2023/06/20 06:07:07;;;;;;;11.82;7.05;;;;;;;;;;5048018;28;20037;-60
2023/06/20 06:09:32;;;;;;;12.50;7.72;;;;;;;;;;5049481;28;20040;-67
2023/06/20 06:11:58;;;;;;;12.98;7.68;;;;;;;;;;5049192;28;20081;-66
2023/06/20 06:14:23;;;;;;;10.93;8.02;;;;;;;;;;5049453;28;20102;-62
2023/06/20 06:16:49;;;;;;;13.05;8.13;;;;;;;;;;5047029;28;20075;-64
2023/06/20 06:19:14;;;;;;;11.07;7.70;;;;;;;;;;5049004;28;20041;-62
2023/06/20 06:21:39;;;;;;;11.10;8.13;;;;;;;;;;5048894;28;20032;-63
2023/06/20 06:24:06;;;;;;;12.83;7.70;;;;;;;;;;5048886;28;20040;-62
2023/06/20 06:26:31;;;;;;;10.30;7.63;;;;;;;;;;5049841;28;20973;-63
2023/06/20 06:28:56;;;;;;;18.23;7.43;;;;;;;;;;5045760;28;20238;-62
2023/06/20 06:31:24;;;;;;;9.93;6.72;;;;;;;;;;5030557;28;20044;-64
2023/06/20 06:33:49;;;;;;;10.65;7.20;;;;;;;;;;5050522;28;20063;-68
2023/06/20 06:36:16;;;;;;;11.87;7.27;;;;;;;;;;5051277;28;20052;-63
2023/06/20 06:38:41;;;;;;;9.63;6.80;;;;;;;;;;5050143;28;20508;-63
2023/06/20 06:41:06;;;;;;;8.83;6.50;;;;;;;;;;5017035;28;20128;-65
2023/06/20 06:43:32;;;;;;;9.82;6.55;;;;;;;;;;5030683;28;20282;-63
2023/06/20 06:45:57;;;;;;;7.73;6.03;;;;;;;;;;5051485;28;20036;-62
2023/06/20 06:48:22;;;;;;;8.27;5.97;;;;;;;;;;5031473;28;20116;-63
2023/06/20 06:50:47;;;;;;;9.30;6.07;;;;;;;;;;5047388;28;20290;-62
2023/06/20 06:53:13;;;;;;;12.60;6.80;;;;;;;;;;5030556;28;20808;-62
2023/06/20 06:55:38;;;;;;;10.13;6.40;;;;;;;;;;5048900;28;20608;-62
2023/06/20 06:58:03;;;;;;;8.13;6.30;;;;;;;;;;5051906;28;20318;-62
2023/06/20 07:00:29;;;;;;;6.90;5.90;;;;;;;;;;5052470;28;20291;-65
2023/06/20 07:02:54;;;;;;;9.15;6.38;;;;;;;;;;5039068;28;20041;-64
2023/06/20 07:05:19;;;;;;;8.13;5.55;;;;;;;;;;5034338;28;20044;-63
2023/06/20 07:07:45;;;;;;;8.10;6.23;;;;;;;;;;5034777;28;20664;-64
2023/06/20 07:10:10;;;;;;;10.85;6.10;;;;;;;;;;5035527;28;20310;-63
2023/06/20 07:12:35;;;;;;;9.05;5.70;;;;;;;;;;5052956;28;20043;-64
2023/06/20 07:15:00;;;;;;;6.47;5.37;;;;;;;;;;5054647;28;20086;-62
2023/06/20 07:17:26;;;;;;;7.68;5.63;;;;;;;;;;5034375;28;20288;-63
2023/06/20 07:19:51;;;;;;;9.23;6.07;;;;;;;;;;5052817;28;20049;-63
2023/06/20 07:22:16;;;;;;;8.55;5.78;;;;;;;;;;5039213;28;20033;-63
2023/06/20 07:24:42;;;;;;;7.78;6.05;;;;;;;;;;5050939;28;20083;-62
2023/06/20 07:27:07;;;;;;;7.27;5.60;;;;;;;;;;5055010;28;20055;-62
2023/06/20 07:29:32;;;;;;;7.10;5.65;;;;;;;;;;5039299;28;20292;-64
2023/06/20 07:31:57;;;;;;;7.23;5.60;;;;;;;;;;5051054;28;20037;-64
2023/06/20 07:34:23;;;;;;;7.97;5.40;;;;;;;;;;5033014;28;21031;-65
2023/06/20 07:36:48;;;;;;;7.20;5.45;;;;;;;;;;5055240;28;20358;-65
2023/06/20 07:39:13;;;;;;;7.35;4.93;;;;;;;;;;5054601;28;20036;-66
2023/06/20 07:41:39;;;;;;;7.07;5.55;;;;;;;;;;5052296;28;20098;-62
2023/06/20 07:44:04;;;;;;;8.18;5.65;;;;;;;;;;5039203;28;20033;-61
2023/06/20 07:46:30;;;;;;;7.70;6.05;;;;;;;;;;5054124;28;20387;-62
2023/06/20 07:48:55;;;;;;;7.68;5.28;;;;;;;;;;5049855;28;20354;-62
2023/06/20 07:51:21;;;;;;;7.33;5.00;;;;;;;;;;5051222;28;20128;-61
2023/06/20 07:53:46;;;;;;;7.40;4.93;;;;;;;;;;5057838;28;20287;-61
2023/06/20 07:56:11;;;;;;;7.53;5.47;;;;;;;;;;5053930;28;20052;-63
2023/06/20 07:58:38;;;;;;;6.93;5.45;;;;;;;;;;5033751;28;20041;-63
2023/06/20 08:01:03;;;;;;;6.95;4.65;;;;;;;;;;5051916;28;20033;-64
2023/06/20 08:03:28;;;;;;;7.03;5.28;;;;;;;;;;5047755;28;20497;-63
2023/06/20 08:05:54;;;;;;;8.23;4.93;;;;;;;;;;5048042;28;20453;-63
2023/06/20 08:08:19;;;;;;;6.32;4.70;;;;;;;;;;5049629;28;20453;-61
2023/06/20 08:10:44;;;;;;;8.13;5.50;;;;;;;;;;5055069;28;20071;-65
2023/06/20 08:13:09;;;;;;;6.73;5.03;;;;;;;;;;5067211;28;20670;-63
2023/06/20 08:15:34;;;;;;;7.13;5.37;;;;;;;;;;5063858;28;20500;-63
2023/06/20 08:18:00;;;;;;;9.00;5.67;;;;;;;;;;5044234;28;20311;-63
2023/06/20 08:20:25;;;;;;;7.83;4.87;;;;;;;;;;5039325;28;20279;-61
2023/06/20 08:22:50;;;;;;;7.57;5.40;;;;;;;;;;5060276;28;20043;-62
2023/06/20 08:25:15;;;;;;;6.03;5.00;;;;;;;;;;5039832;28;20040;-62
2023/06/20 08:27:41;;;;;;;7.00;5.32;;;;;;;;;;5039328;28;20661;-65
2023/06/20 08:30:06;;;;;;;7.23;5.30;;;;;;;;;;5065970;28;20040;-62
2023/06/20 08:32:31;;;;;;;6.35;4.82;;;;;;;;;;5061238;28;20296;-64
2023/06/20 08:34:57;;;;;;;6.83;4.80;;;;;;;;;;5055578;28;20052;-63
2023/06/20 08:37:22;;;;;;;5.63;4.75;;;;;;;;;;5035314;28;20705;-61
2023/06/20 08:39:47;;;;;;;6.47;4.80;;;;;;;;;;5060550;28;20048;-61
2023/06/20 08:42:13;;;;;;;5.82;4.82;;;;;;;;;;5070732;28;20055;-62
2023/06/20 08:44:38;;;;;;;5.87;4.53;;;;;;;;;;5046091;28;20082;-61
2023/06/20 08:47:03;;;;;;;6.20;5.07;;;;;;;;;;5059322;28;20052;-62
2023/06/20 08:49:29;;;;;;;6.07;4.65;;;;;;;;;;5067158;28;20318;-65
2023/06/20 08:51:56;;;;;;;6.45;4.55;;;;;;;;;;5069181;28;20056;-64
2023/06/20 08:54:22;;;;;;;6.93;4.80;;;;;;;;;;5030638;28;20041;-64
2023/06/20 08:56:47;;;;;;;5.43;4.47;;;;;;;;;;5052779;28;20025;-63
2023/06/20 08:59:12;;;;;;;6.35;4.65;;;;;;;;;;5048701;28;20036;-66
2023/06/20 09:01:38;;;;;;;5.60;4.97;;;;;;;;;;5051010;28;20028;-66
2023/06/20 09:04:03;;;;;;;7.97;4.82;;;;;;;;;;5053899;28;20135;-63
2023/06/20 09:06:37;;;;;;;6.68;5.07;;;;;;;;;;5037706;28;20041;-67
2023/06/20 09:09:05;;;;;;;6.20;5.25;;;;;;;;;;5054511;28;20036;-65
2023/06/20 09:11:33;;;;;;;6.53;4.90;;;;;;;;;;5053477;28;20048;-62
2023/06/20 09:14:01;;;;;;;5.30;4.80;;;;;;;;;;5052480;28;20028;-63
2023/06/20 09:16:28;;;;;;;6.88;4.85;;;;;;;;;;5039308;28;20043;-61
2023/06/20 09:18:57;;;;;;;5.60;4.95;;;;;;;;;;5037293;28;20119;-62
2023/06/20 09:21:22;;;;;;;7.38;5.20;;;;;;;;;;5052138;28;20040;-62
2023/06/20 09:23:48;;;;;;;6.63;5.00;;;;;;;;;;5022339;28;20028;-61
2023/06/20 09:26:16;;;;;;;8.52;5.50;;;;;;;;;;5049279;28;20028;-61
2023/06/20 09:28:42;;;;;;;6.10;4.95;;;;;;;;;;5050556;28;20107;-60
2023/06/20 09:31:07;;;;;;;6.38;5.63;;;;;;;;;;5038513;28;20598;-61
2023/06/20 09:33:35;;;;;;;8.38;5.50;;;;;;;;;;5052622;28;20021;-62
2023/06/20 09:36:10;;;;;;;7.25;5.18;;;;;;;;;;5050343;28;20056;-60
2023/06/20 09:38:35;;;;;;;10.30;6.53;;;;;;;;;;5050298;28;20041;-62
2023/06/20 09:41:01;;;;;;;26.03;17.90;;;;;;;;;;5049119;28;20060;-62
2023/06/20 09:43:26;;;;;;;24.80;17.10;;;;;;;;;;5053782;28;20036;-61
2023/06/20 09:45:51;;;;;;;16.15;10.15;;;;;;;;;;5051552;28;20037;-61
2023/06/20 09:48:16;;;;;;;10.17;7.07;;;;;;;;;;5015803;28;20036;-63
2023/06/20 09:50:42;;;;;;;9.20;7.30;;;;;;;;;;5032999;28;20033;-62
2023/06/20 09:53:19;;;;;;;8.13;6.73;;;;;;;;;;5038627;28;20458;-61
2023/06/20 09:55:45;;;;;;;9.80;7.18;;;;;;;;;;5030655;28;20478;-61
2023/06/20 09:58:10;;;;;;;7.47;6.13;;;;;;;;;;5051041;28;20385;-64
2023/06/20 10:00:35;;;;;;;7.43;6.28;;;;;;;;;;5020916;28;20367;-60
2023/06/20 10:03:03;;;;;;;8.45;5.80;;;;;;;;;;5031483;28;20052;-60
2023/06/20 10:05:28;;;;;;;8.38;6.10;;;;;;;;;;5030331;28;20064;-60
2023/06/20 10:07:57;;;;;;;7.20;5.72;;;;;;;;;;5031329;28;20064;-59
2023/06/20 10:10:22;;;;;;;8.70;5.30;;;;;;;;;;5047670;28;20033;-60
2023/06/20 10:12:48;;;;;;;7.40;5.40;;;;;;;;;;5032244;28;20032;-60
2023/06/20 10:15:16;;;;;;;6.80;5.23;;;;;;;;;;5037749;28;20173;-64
2023/06/20 10:17:48;;;;;;;7.35;5.10;;;;;;;;;;5033207;28;20297;-60
2023/06/20 10:20:42;;;;;;;6.55;5.10;;;;;;;;;;5033583;28;20499;-63
2023/06/20 10:23:10;;;;;;;5.95;4.80;;;;;;;;;;5035984;28;20036;-61
2023/06/20 10:25:35;;;;;;;6.65;5.05;;;;;;;;;;5048181;28;20033;-65
2023/06/20 10:28:08;;;;;;;7.03;5.53;;;;;;;;;;5020353;28;20109;-61
2023/06/20 10:30:46;;;;;;;6.95;5.05;;;;;;;;;;5040146;28;20545;-62
2023/06/20 10:33:11;;;;;;;6.82;5.25;;;;;;;;;;5054442;28;20043;-61
2023/06/20 10:35:50;;;;;;;7.43;4.82;;;;;;;;;;5042335;28;20462;-62
2023/06/20 10:38:15;;;;;;;6.65;5.20;;;;;;;;;;5052843;28;20507;-61
2023/06/20 10:40:41;;;;;;;6.45;5.32;;;;;;;;;;5053889;28;20039;-62
2023/06/20 10:43:14;;;;;;;6.10;4.80;;;;;;;;;;5054784;28;20033;-61
2023/06/20 10:45:43;;;;;;;6.55;5.00;;;;;;;;;;5040881;28;20446;-62
2023/06/20 10:48:08;;;;;;;8.23;5.10;;;;;;;;;;5033958;28;20044;-61
2023/06/20 10:50:33;;;;;;;7.63;5.30;;;;;;;;;;5040751;28;20052;-64
2023/06/20 10:53:00;;;;;;;6.27;5.07;;;;;;;;;;5054905;28;20043;-62
2023/06/20 10:55:26;;;;;;;6.20;5.10;;;;;;;;;;5037053;28;20538;-60
2023/06/20 10:57:51;;;;;;;6.18;5.00;;;;;;;;;;5053260;28;20037;-62
2023/06/20 11:00:18;;;;;;;6.80;5.35;;;;;;;;;;5053227;28;20050;-62
2023/06/20 11:02:46;;;;;;;5.57;4.63;;;;;;;;;;5040194;28;20427;-62
2023/06/20 11:05:11;;;;;;;7.25;5.63;;;;;;;;;;5018710;28;20025;-61
2023/06/20 11:08:09;;;;;;;6.87;5.30;;;;;;;;;;5050816;28;20552;-60
2023/06/20 11:10:35;;;;;;;6.35;5.10;;;;;;;;;;5009229;28;20286;-60
2023/06/20 11:13:04;;;;;;;8.52;5.57;;;;;;;;;;5067407;28;20029;-65
2023/06/20 11:15:30;;;;;;;9.73;5.43;;;;;;;;;;5053365;28;20045;-63
2023/06/20 11:17:57;;;;;;;6.18;5.32;;;;;;;;;;5052028;28;20473;-60
2023/06/20 11:20:23;;;;;;;6.70;5.00;;;;;;;;;;5052332;28;20045;-66
2023/06/20 11:22:48;;;;;;;7.20;5.07;;;;;;;;;;5053245;28;20028;-63
2023/06/20 11:25:23;;;;;;;6.63;5.10;;;;;;;;;;5052303;28;20509;-65
2023/06/20 11:27:48;;;;;;;6.18;4.95;;;;;;;;;;5052733;28;20290;-63
2023/06/20 11:30:13;;;;;;;6.60;4.97;;;;;;;;;;5052336;28;20040;-63
2023/06/20 11:32:39;;;;;;;6.13;4.60;;;;;;;;;;5034122;28;20097;-63
2023/06/20 11:35:06;;;;;;;7.33;5.23;;;;;;;;;;5052764;28;20048;-62
2023/06/20 11:37:31;;;;;;;7.65;5.03;;;;;;;;;;5052252;28;20036;-62
2023/06/20 11:39:56;;;;;;;6.93;5.20;;;;;;;;;;5039227;28;20036;-60
2023/06/20 11:42:22;;;;;;;8.20;4.83;;;;;;;;;;5015011;28;20032;-61
2023/06/20 11:44:47;;;;;;;6.47;4.88;;;;;;;;;;5051226;28;20291;-61
2023/06/20 11:47:12;;;;;;;5.82;4.45;;;;;;;;;;5034025;28;20474;-61
2023/06/20 11:49:41;;;;;;;6.38;5.10;;;;;;;;;;5051603;28;20052;-61
2023/06/20 11:52:07;;;;;;;5.82;5.22;;;;;;;;;;5052178;28;20044;-64
2023/06/20 11:54:45;;;;;;;6.28;4.72;;;;;;;;;;5053249;28;20041;-63
2023/06/20 11:57:11;;;;;;;6.13;4.75;;;;;;;;;;5051867;28;20060;-63
2023/06/20 11:59:36;;;;;;;5.90;4.78;;;;;;;;;;5031907;28;20043;-64
2023/06/20 12:02:02;;;;;;;6.70;5.27;;;;;;;;;;5052033;28;20060;-61
2023/06/20 12:04:27;;;;;;;6.53;5.07;;;;;;;;;;5038078;28;20693;-62
2023/06/20 12:07:02;;;;;;;6.07;5.07;;;;;;;;;;5052633;28;20487;-63
2023/06/20 12:09:28;;;;;;;6.38;5.50;;;;;;;;;;5050897;28;20032;-62
2023/06/20 12:11:56;;;;;;;6.30;5.30;;;;;;;;;;5036402;28;20033;-66
2023/06/20 12:14:22;;;;;;;6.60;5.22;;;;;;;;;;5065463;28;20051;-64
2023/06/20 12:16:48;;;;;;;6.75;5.18;;;;;;;;;;5046543;28;20135;-62
2023/06/20 12:19:14;;;;;;;7.40;5.45;;;;;;;;;;5063242;28;20091;-63
2023/06/20 12:21:39;;;;;;;7.00;5.60;;;;;;;;;;5060214;28;20060;-62
2023/06/20 12:24:05;;;;;;;6.18;5.00;;;;;;;;;;5059247;28;20033;-63
2023/06/20 12:26:30;;;;;;;6.40;5.13;;;;;;;;;;5066057;28;20048;-61
2023/06/20 12:28:56;;;;;;;5.65;5.05;;;;;;;;;;5062044;28;20040;-64
2023/06/20 12:31:22;;;;;;;6.20;5.40;;;;;;;;;;5040209;28;20040;-62
2023/06/20 12:33:47;;;;;;;6.78;4.93;;;;;;;;;;5055198;28;20048;-64
2023/06/20 12:36:12;;;;;;;7.10;4.87;;;;;;;;;;5052204;28;20309;-64
2023/06/20 12:38:37;;;;;;;6.27;5.20;;;;;;;;;;5061361;28;20817;-64
2023/06/20 12:41:03;;;;;;;6.40;4.93;;;;;;;;;;5066248;28;20494;-66
2023/06/20 12:43:28;;;;;;;7.15;5.10;;;;;;;;;;5055464;28;20033;-64
2023/06/20 12:45:53;;;;;;;7.15;5.28;;;;;;;;;;5049106;28;20476;-65
2023/06/20 12:48:19;;;;;;;6.30;5.20;;;;;;;;;;5068653;28;20569;-65
2023/06/20 12:50:44;;;;;;;7.13;5.63;;;;;;;;;;5069443;28;20454;-68
2023/06/20 12:53:09;;;;;;;5.85;5.25;;;;;;;;;;5065169;28;20711;-66
2023/06/20 12:55:34;;;;;;;7.38;4.85;;;;;;;;;;5063499;28;20056;-63
2023/06/20 12:58:01;;;;;;;6.63;5.37;;;;;;;;;;5060054;28;20496;-64
2023/06/20 13:00:28;;;;;;;6.65;5.38;;;;;;;;;;5060996;28;20281;-67
2023/06/20 13:02:53;;;;;;;6.13;5.00;;;;;;;;;;5059874;28;20033;-69
2023/06/20 13:05:19;;;;;;;8.07;5.45;;;;;;;;;;5060319;28;20045;-70
2023/06/20 13:07:45;;;;;;;7.00;5.43;;;;;;;;;;5048790;28;20036;-72
2023/06/20 13:10:10;;;;;;;6.87;5.27;;;;;;;;;;5033744;28;20639;-73
2023/06/20 13:12:35;;;;;;;5.55;4.85;;;;;;;;;;5062329;28;20456;-62
2023/06/20 13:15:01;;;;;;;5.97;5.30;;;;;;;;;;5057464;28;20056;-64
2023/06/20 13:17:27;;;;;;;6.85;4.93;;;;;;;;;;5051531;28;20028;-64
2023/06/20 13:19:52;;;;;;;7.40;5.03;;;;;;;;;;5038394;28;20491;-64
2023/06/20 13:22:17;;;;;;;7.33;5.53;;;;;;;;;;5061522;28;20033;-65
2023/06/20 13:24:44;;;;;;;7.63;5.90;;;;;;;;;;5064950;28;20354;-66
2023/06/20 13:27:10;;;;;;;6.65;5.63;;;;;;;;;;5062663;28;20045;-64
2023/06/20 13:29:35;;;;;;;6.30;4.70;;;;;;;;;;5057565;28;20131;-65
2023/06/20 13:32:02;;;;;;;6.00;5.10;;;;;;;;;;5062533;28;20066;-65
2023/06/20 13:34:27;;;;;;;7.40;5.43;;;;;;;;;;5048887;28;20414;-63
2023/06/20 13:36:52;;;;;;;5.20;4.50;;;;;;;;;;5056920;28;20047;-65
2023/06/20 13:39:17;;;;;;;6.03;4.93;;;;;;;;;;5057305;28;20279;-67
2023/06/20 13:41:43;;;;;;;7.07;4.90;;;;;;;;;;5059048;28;20032;-62
2023/06/20 13:44:08;;;;;;;5.93;4.70;;;;;;;;;;5046428;28;20373;-64
2023/06/20 13:46:33;;;;;;;6.97;5.10;;;;;;;;;;5062769;28;20287;-62
2023/06/20 13:48:58;;;;;;;6.77;5.17;;;;;;;;;;5055263;28;20290;-62
2023/06/20 13:51:24;;;;;;;6.53;5.07;;;;;;;;;;5053967;28;20855;-63
2023/06/20 13:53:49;;;;;;;6.33;4.53;;;;;;;;;;5063579;28;20056;-64
2023/06/20 13:56:14;;;;;;;6.40;5.00;;;;;;;;;;5060626;28;20394;-66
2023/06/20 13:58:39;;;;;;;6.45;4.80;;;;;;;;;;5054261;28;20041;-62
2023/06/20 14:01:07;;;;;;;6.20;5.00;;;;;;;;;;5050295;28;20486;-62
2023/06/20 14:03:33;;;;;;;8.05;4.63;;;;;;;;;;5047977;28;20108;-60
2023/06/20 14:05:58;;;;;;;7.60;4.95;;;;;;;;;;5051631;28;20025;-63
2023/06/20 14:08:23;;;;;;;6.17;4.90;;;;;;;;;;5045465;28;20051;-64
2023/06/20 14:10:49;;;;;;;7.13;4.97;;;;;;;;;;5068081;28;20821;-65
2023/06/20 14:13:14;;;;;;;5.95;5.07;;;;;;;;;;5073564;28;20510;-62
2023/06/20 14:15:41;;;;;;;5.80;4.65;;;;;;;;;;5061766;28;20062;-63
2023/06/20 14:18:06;;;;;;;6.20;4.88;;;;;;;;;;5062316;28;20086;-63
2023/06/20 14:20:31;;;;;;;5.93;4.40;;;;;;;;;;5061136;28;20032;-64
2023/06/20 14:22:57;;;;;;;6.17;4.40;;;;;;;;;;5068767;28;20037;-64
2023/06/20 14:25:22;;;;;;;5.68;4.82;;;;;;;;;;5060036;28;20128;-64
2023/06/20 14:27:47;;;;;;;5.97;4.53;;;;;;;;;;5056345;28;20071;-70
2023/06/20 14:30:14;;;;;;;6.60;4.85;;;;;;;;;;5062665;28;20040;-69
2023/06/20 14:32:39;;;;;;;6.15;5.13;;;;;;;;;;5061909;28;20123;-71
2023/06/20 14:35:04;;;;;;;4.93;4.30;;;;;;;;;;5065089;28;20438;-72